Capt. Ted — WDD6210 — position and weather

sailwx.info

Track history (hours):
 
Tides and Currents Weather Stations Pressure Air Temp Water Temp Dewpoint Dewpoint Depression Visibility Wind Speed Wind Dir Waves Ship Positions

Capt. Ted

Owner: Salisbury Towing Corporation, Havre de Grace, MD. More information available from US FCC via Universal Licensing System and Coast Guard Vessel Documentation Center.

Last reported at 2016-May-24 01:09 UTC. Time now 2016-May-24 09:53 UTC.
Position N 38°01' W 076°21'.

Length 32 m; draft 2.8 m.

Type: Tug. MMSI: 367169710.

Date/timePositionNaut miles runAvg speedWind from/ knotsBaromVisibWave heightAir tempDewpointWater temp
2016-May-24 01:09N 38°01' W 076°21'  
2016-May-21 12:12N 38°04' W 075°37'0 0.0
2016-May-21 11:32N 38°04' W 075°37'0 0.0
2016-May-21 10:33N 38°04' W 075°37'0 0.0
2016-May-21 09:29N 38°04' W 075°37'0 0.0
2016-May-21 08:33N 38°04' W 075°37'0 0.0
2016-May-21 07:29N 38°04' W 075°37'1 0.5
2016-May-21 05:25N 38°03' W 075°38'3 3.0
2016-May-21 04:30N 38°00' W 075°37'4 3.9
2016-May-21 03:31N 37°58' W 075°41'63 1.4
2016-May-19 06:24N 38°51' W 076°25'11 5.7
2016-May-19 04:32N 39°01' W 076°22'22 5.5
2016-May-19 00:28N 39°21' W 076°10'5 4.9
2016-May-18 23:33N 39°23' W 076°04'4 3.8
2016-May-18 22:33N 39°27' W 076°02'4 3.7
2016-May-18 21:33N 39°30' W 076°05'3 3.1
2016-May-18 20:33N 39°33' W 076°05'1 0.7
2016-May-18 19:33N 39°33' W 076°05'1 0.6
2016-May-18 18:33N 39°33' W 076°05'5 5.1
2016-May-18 17:33N 39°28' W 076°03'5 5.1
2016-May-18 16:33N 39°23' W 076°06'5 5.5
2016-May-18 15:33N 39°20' W 076°11'5 5.1
2016-May-18 14:33N 39°16' W 076°16'6 6.1
2016-May-18 13:30N 39°13' W 076°23'5 5.7
2016-May-18 12:33N 39°12' W 076°29'6 5.8
2016-May-18 11:33N 39°15' W 076°35'8 7.7
2016-May-18 10:33N 39°11' W 076°27'10 8.7
2016-May-18 09:26N 39°02' W 076°23'11 9.1
2016-May-18 08:11N 38°51' W 076°26'49 8.3
2016-May-18 02:16N 38°02' W 076°21'7 8.6
2016-May-18 01:28N 38°05' W 076°28'47 3.3
2016-May-17 11:08N 38°37' W 077°13'2 0.6
2016-May-17 08:33N 38°35' W 077°13'9 7.1
2016-May-17 07:15N 38°26' W 077°16'6 7.3
2016-May-17 06:25N 38°21' W 077°12'39 6.6
2016-May-17 00:33N 38°04' W 076°28'  
2016-May-14 18:24N 38°03' W 076°15'51 7.4
2016-May-14 11:31N 38°54' W 076°25'8 8.5
2016-May-14 10:33N 39°01' W 076°22'9 7.8
2016-May-14 09:23N 39°10' W 076°18'13 7.1
2016-May-14 07:33N 39°21' W 076°10'6 6.4
2016-May-14 06:33N 39°25' W 076°03'6 5.7
2016-May-14 05:33N 39°30' W 076°05'4 4.4
2016-May-14 04:33N 39°34' W 076°06'7 6.8
2016-May-14 03:33N 39°28' W 076°03'7 6.6
2016-May-14 02:33N 39°22' W 076°07'7 7.5
2016-May-14 01:33N 39°17' W 076°14'  
Track history (hours):
 
Tides and Currents Weather Stations Pressure Air Temp Water Temp Dewpoint Dewpoint Depression Visibility Wind Speed Wind Dir Waves Ship Positions

Capt. Ted

Owner: Salisbury Towing Corporation, Havre de Grace, MD. More information available from US FCC via Universal Licensing System and Coast Guard Vessel Documentation Center.

Last reported at 2016-May-24 01:09 UTC. Time now 2016-May-24 09:53 UTC.
Position N 38°01' W 076°21'.

Length 32 m; draft 2.8 m.

Type: Tug. MMSI: 367169710.

Date/timePositionNaut miles runAvg speedWind from/ knotsBaromVisibWave heightAir tempDewpointWater temp
2016-May-24 01:09N 38°01' W 076°21'  
2016-May-21 12:12N 38°04' W 075°37'0 0.0
2016-May-21 11:32N 38°04' W 075°37'0 0.0
2016-May-21 10:33N 38°04' W 075°37'0 0.0
2016-May-21 09:29N 38°04' W 075°37'0 0.0
2016-May-21 08:33N 38°04' W 075°37'0 0.0
2016-May-21 07:29N 38°04' W 075°37'1 0.5
2016-May-21 05:25N 38°03' W 075°38'3 3.0
2016-May-21 04:30N 38°00' W 075°37'4 3.9
2016-May-21 03:31N 37°58' W 075°41'63 1.4
2016-May-19 06:24N 38°51' W 076°25'11 5.7
2016-May-19 04:32N 39°01' W 076°22'22 5.5
2016-May-19 00:28N 39°21' W 076°10'5 4.9
2016-May-18 23:33N 39°23' W 076°04'4 3.8
2016-May-18 22:33N 39°27' W 076°02'4 3.7
2016-May-18 21:33N 39°30' W 076°05'3 3.1
2016-May-18 20:33N 39°33' W 076°05'1 0.7
2016-May-18 19:33N 39°33' W 076°05'1 0.6
2016-May-18 18:33N 39°33' W 076°05'5 5.1
2016-May-18 17:33N 39°28' W 076°03'5 5.1
2016-May-18 16:33N 39°23' W 076°06'5 5.5
2016-May-18 15:33N 39°20' W 076°11'5 5.1
2016-May-18 14:33N 39°16' W 076°16'6 6.1
2016-May-18 13:30N 39°13' W 076°23'5 5.7
2016-May-18 12:33N 39°12' W 076°29'6 5.8
2016-May-18 11:33N 39°15' W 076°35'8 7.7
2016-May-18 10:33N 39°11' W 076°27'10 8.7
2016-May-18 09:26N 39°02' W 076°23'11 9.1
2016-May-18 08:11N 38°51' W 076°26'49 8.3
2016-May-18 02:16N 38°02' W 076°21'7 8.6
2016-May-18 01:28N 38°05' W 076°28'47 3.3
2016-May-17 11:08N 38°37' W 077°13'2 0.6
2016-May-17 08:33N 38°35' W 077°13'9 7.1
2016-May-17 07:15N 38°26' W 077°16'6 7.3
2016-May-17 06:25N 38°21' W 077°12'39 6.6
2016-May-17 00:33N 38°04' W 076°28'  
2016-May-14 18:24N 38°03' W 076°15'51 7.4
2016-May-14 11:31N 38°54' W 076°25'8 8.5
2016-May-14 10:33N 39°01' W 076°22'9 7.8
2016-May-14 09:23N 39°10' W 076°18'13 7.1
2016-May-14 07:33N 39°21' W 076°10'6 6.4
2016-May-14 06:33N 39°25' W 076°03'6 5.7
2016-May-14 05:33N 39°30' W 076°05'4 4.4
2016-May-14 04:33N 39°34' W 076°06'7 6.8
2016-May-14 03:33N 39°28' W 076°03'7 6.6
2016-May-14 02:33N 39°22' W 076°07'7 7.5
2016-May-14 01:33N 39°17' W 076°14'  

Dump ship's entire track history